Terminal Aerodrome Forecast
Issued by NWS

Home | Current Version | Previous Version | Text Only | Print | Product List | Glossary On
Versions: 1 2 3 4 5 6 7 8 9 10 11 12 13 14 15 16 17 18 19 20 21 22 23 24 25 26 27 28 29 30 31 32 33 34 35 36 37 38 39
000
FTAK31 PAFA 261730
TAFAGA
TAF
PAGA 261730Z 2618/2718 03005KT P6SM -SHSN BKN018 OVC024
     FM262100 00000KT P6SM SCT015 BKN025 OVC080
     FM270300 06003KT P6SM SCT250=

USA.gov is the U.S. government's official web portal to all federal, state and local government web resources and services.